Time;durP1;ratioP1;P1;durP2;ratioP2;P2;SDS_P1;SDS_P2;PMS_P1;PMS_P2;Temp;Humidity;BMP_temperature;BMP_pressure;BME280_temperature;BME280_humidity;BME280_pressure;Samples;Min_cycle;Max_cycle;Signal;HPM_P1;HPM_P2
2022/01/15 00:02:51;;;;;;;18.37;14.80;;;3.40;40.20;;;;;;10431839;28;20244;-70
2022/01/15 00:07:54;;;;;;;16.57;13.87;;;3.30;40.10;;;;;;10426141;28;20240;-70
2022/01/15 00:12:59;;;;;;;17.93;12.83;;;3.30;40.20;;;;;;10428644;28;20225;-70
2022/01/15 00:18:10;;;;;;;15.60;13.93;;;3.30;40.30;;;;;;10428475;28;20601;-70
2022/01/15 00:23:14;;;;;;;16.30;14.10;;;3.30;40.10;;;;;;10431846;28;20229;-70
2022/01/15 00:28:17;;;;;;;13.70;12.23;;;3.30;40.30;;;;;;10426884;28;20228;-70
2022/01/15 00:33:21;;;;;;;16.53;13.80;;;3.20;40.20;;;;;;10428989;28;20228;-70
2022/01/15 00:38:25;;;;;;;13.50;11.77;;;3.20;40.10;;;;;;10426331;28;20225;-70
2022/01/15 00:43:28;;;;;;;14.10;12.60;;;3.20;40.30;;;;;;10425070;28;20328;-70
2022/01/15 00:48:33;;;;;;;18.27;13.93;;;3.20;40.30;;;;;;10425206;28;20221;-70
2022/01/15 00:53:36;;;;;;;16.13;12.67;;;3.10;40.00;;;;;;10422315;28;20229;-70
2022/01/15 00:58:39;;;;;;;16.57;13.03;;;3.10;40.10;;;;;;10422044;28;20226;-70
2022/01/15 01:03:43;;;;;;;17.10;13.57;;;3.00;40.80;;;;;;10424643;28;20233;-70
2022/01/15 01:08:47;;;;;;;16.53;13.90;;;3.00;40.00;;;;;;10424291;28;20512;-70
2022/01/15 01:24:33;;;;;;;12.17;10.57;;;2.80;39.90;;;;;;10424424;28;20229;-70
2022/01/15 01:29:49;;;;;;;13.47;10.83;;;2.70;40.20;;;;;;10425004;28;20222;-70
2022/01/15 01:34:54;;;;;;;15.83;12.87;;;2.70;40.40;;;;;;10424158;28;20239;-70
2022/01/15 01:40:14;;;;;;;15.63;12.83;;;2.70;40.40;;;;;;10419174;28;20228;-70
2022/01/15 01:45:18;;;;;;;17.37;13.00;;;2.70;40.30;;;;;;10421284;28;20221;-70
2022/01/15 01:50:25;;;;;;;16.13;12.70;;;2.60;40.20;;;;;;10423734;28;20229;-70
2022/01/15 01:55:29;;;;;;;13.77;12.30;;;2.60;40.10;;;;;;10419896;28;20236;-70
2022/01/15 02:00:32;;;;;;;14.83;13.20;;;2.70;40.30;;;;;;10424420;28;20236;-70
2022/01/15 02:05:40;;;;;;;11.80;9.83;;;2.60;40.20;;;;;;10418374;28;20221;-70
2022/01/15 02:10:44;;;;;;;14.20;12.40;;;2.60;40.20;;;;;;10426330;28;20232;-70
2022/01/15 02:15:47;;;;;;;16.83;13.50;;;2.60;40.20;;;;;;10433734;28;20231;-70
2022/01/15 02:23:32;;;;;;;17.10;13.43;;;2.60;40.20;;;;;;10432541;28;20732;-70
2022/01/15 02:26:27;;;;;;;18.03;13.57;;;2.50;40.20;;;;;;10432978;28;20221;-70
2022/01/15 02:31:32;;;;;;;18.13;14.07;;;2.50;40.20;;;;;;10431639;28;20225;-70
2022/01/15 02:36:37;;;;;;;15.40;12.87;;;2.50;40.30;;;;;;10434352;28;20271;-70
2022/01/15 02:41:41;;;;;;;15.67;12.27;;;2.40;40.40;;;;;;10829962;22;20226;-70
2022/01/15 02:52:08;;;;;;;13.07;10.87;;;2.60;40.60;;;;;;10504974;28;20224;-71
2022/01/15 02:57:11;;;;;;;14.90;12.27;;;2.40;40.40;;;;;;10499954;28;20234;-71
2022/01/15 03:02:14;;;;;;;13.70;11.17;;;2.50;40.70;;;;;;10506154;28;20228;-71
2022/01/15 03:07:19;;;;;;;14.13;12.03;;;2.40;40.50;;;;;;10505027;28;20223;-71
2022/01/15 03:12:22;;;;;;;14.13;11.87;;;2.40;40.60;;;;;;10505381;28;20243;-71
2022/01/15 03:17:25;;;;;;;14.37;12.03;;;2.40;40.50;;;;;;10506620;28;20231;-71
2022/01/15 03:22:30;;;;;;;15.00;11.20;;;2.40;40.60;;;;;;10507778;28;20227;-71
2022/01/15 03:27:33;;;;;;;15.77;11.73;;;2.40;40.60;;;;;;10504504;28;20224;-69
2022/01/15 03:32:37;;;;;;;14.50;11.30;;;2.40;40.50;;;;;;10506143;28;20595;-69
2022/01/15 03:37:42;;;;;;;14.43;12.13;;;2.40;40.60;;;;;;10506229;28;20632;-68
2022/01/15 03:42:46;;;;;;;15.20;11.77;;;2.40;40.60;;;;;;10508092;28;20714;-68
2022/01/15 03:47:49;;;;;;;14.73;11.50;;;2.40;40.40;;;;;;10505458;28;20247;-68
2022/01/15 03:52:55;;;;;;;14.13;11.77;;;2.30;40.40;;;;;;10510117;28;20232;-68
2022/01/15 03:57:59;;;;;;;19.17;12.53;;;2.50;40.70;;;;;;10497717;28;20224;-68
2022/01/15 04:03:03;;;;;;;14.73;11.63;;;2.40;40.60;;;;;;10503030;28;20232;-68
2022/01/15 04:08:09;;;;;;;14.00;12.13;;;2.30;40.50;;;;;;10504374;28;20219;-68
2022/01/15 04:13:15;;;;;;;16.33;13.67;;;2.50;40.70;;;;;;10506623;28;20577;-68
2022/01/15 04:18:19;;;;;;;14.97;12.07;;;2.40;40.60;;;;;;10507492;28;20223;-68
2022/01/15 04:23:23;;;;;;;18.90;13.70;;;2.40;40.60;;;;;;10502191;28;20615;-68
2022/01/15 04:28:28;;;;;;;16.40;13.27;;;2.40;40.90;;;;;;10509444;28;20220;-68
2022/01/15 04:33:32;;;;;;;16.57;13.00;;;2.40;40.90;;;;;;10509276;28;20227;-68
2022/01/15 04:38:38;;;;;;;18.73;13.97;;;2.40;41.10;;;;;;10502367;28;20228;-68
2022/01/15 04:43:41;;;;;;;20.93;15.17;;;2.50;41.30;;;;;;10505906;28;20235;-68
2022/01/15 04:48:45;;;;;;;17.93;11.57;;;2.50;41.30;;;;;;10505252;28;20224;-68
2022/01/15 04:53:49;;;;;;;17.73;12.73;;;2.50;41.30;;;;;;10500941;28;20232;-68
2022/01/15 04:58:52;;;;;;;17.07;12.53;;;2.60;41.70;;;;;;10502787;28;20235;-68
2022/01/15 05:03:56;;;;;;;19.10;13.33;;;2.50;41.50;;;;;;10499978;28;20217;-68
2022/01/15 05:09:05;;;;;;;16.20;12.70;;;2.60;41.70;;;;;;10503941;28;20223;-68
2022/01/15 05:14:08;;;;;;;18.40;11.90;;;2.70;41.80;;;;;;10499897;28;20224;-69
2022/01/15 05:19:11;;;;;;;22.33;13.63;;;2.70;41.80;;;;;;10502408;28;20235;-68
2022/01/15 05:24:16;;;;;;;16.60;12.17;;;2.80;41.90;;;;;;10506138;28;20237;-69
2022/01/15 05:29:19;;;;;;;14.90;12.43;;;2.80;41.90;;;;;;10501269;28;20254;-68
2022/01/15 05:34:22;;;;;;;18.47;12.83;;;2.80;41.70;;;;;;10501175;28;20581;-68
2022/01/15 05:39:26;;;;;;;20.60;13.23;;;2.90;41.90;;;;;;10498605;28;20247;-69
2022/01/15 05:44:30;;;;;;;17.93;11.63;;;2.90;42.10;;;;;;10503117;28;20711;-68
2022/01/15 05:49:33;;;;;;;16.10;12.17;;;3.00;42.10;;;;;;10496057;28;20227;-68
2022/01/15 05:54:37;;;;;;;14.60;11.17;;;3.00;42.20;;;;;;10496611;28;20224;-68
2022/01/15 05:59:41;;;;;;;20.63;12.23;;;3.10;42.40;;;;;;10500617;28;20244;-68
2022/01/15 06:04:44;;;;;;;17.07;11.80;;;3.10;42.20;;;;;;10503377;28;20227;-68
2022/01/15 06:09:48;;;;;;;17.87;11.93;;;3.20;42.40;;;;;;10502530;28;20230;-68
2022/01/15 06:14:52;;;;;;;19.87;12.63;;;3.10;42.50;;;;;;10501227;28;20752;-69
2022/01/15 06:19:55;;;;;;;20.87;13.60;;;3.20;42.40;;;;;;10502349;28;20228;-69
2022/01/15 06:24:59;;;;;;;18.30;12.70;;;3.20;42.40;;;;;;10499427;28;20216;-69
2022/01/15 06:30:05;;;;;;;19.70;13.70;;;3.30;42.70;;;;;;10501278;28;20368;-71
2022/01/15 06:35:11;;;;;;;21.80;13.80;;;3.30;42.60;;;;;;10501908;28;20718;-71
2022/01/15 06:40:16;;;;;;;19.60;13.43;;;3.30;42.70;;;;;;10503063;28;20236;-69
2022/01/15 06:45:19;;;;;;;28.00;14.93;;;3.30;42.70;;;;;;10500076;28;20220;-69
2022/01/15 06:50:24;;;;;;;25.53;15.13;;;3.40;42.70;;;;;;10500799;28;20232;-69
2022/01/15 06:55:29;;;;;;;17.60;12.43;;;3.40;42.70;;;;;;10498183;28;20281;-69
2022/01/15 07:00:32;;;;;;;20.43;13.90;;;3.40;42.90;;;;;;10499239;28;20227;-69
2022/01/15 07:05:35;;;;;;;21.27;14.50;;;3.40;42.90;;;;;;10512508;28;20315;-69
2022/01/15 07:10:41;;;;;;;20.97;14.57;;;3.40;43.00;;;;;;10513286;28;20227;-69
2022/01/15 07:15:44;;;;;;;27.53;19.17;;;3.50;43.30;;;;;;10508461;28;20739;-71
2022/01/15 07:20:47;;;;;;;30.60;19.30;;;3.50;43.20;;;;;;10508778;28;20229;-70
2022/01/15 07:25:52;;;;;;;28.30;19.00;;;3.50;43.10;;;;;;10511561;28;20224;-70
2022/01/15 07:30:55;;;;;;;32.20;20.00;;;3.60;43.40;;;;;;10505485;28;20227;-71
2022/01/15 07:35:59;;;;;;;28.60;18.77;;;3.60;43.30;;;;;;10507952;28;20219;-69
2022/01/15 07:41:05;;;;;;;32.20;21.10;;;3.70;43.30;;;;;;10506275;28;20215;-69
2022/01/15 07:46:09;;;;;;;24.13;16.67;;;3.70;43.50;;;;;;10508191;28;20230;-69
2022/01/15 07:51:12;;;;;;;29.57;19.50;;;3.70;43.40;;;;;;10509553;28;20227;-69
2022/01/15 07:56:17;;;;;;;33.37;21.13;;;3.80;43.50;;;;;;10505335;28;20529;-68
2022/01/15 08:01:20;;;;;;;33.80;21.67;;;3.80;43.70;;;;;;10508671;28;20235;-68
2022/01/15 08:06:23;;;;;;;30.10;20.43;;;3.80;43.60;;;;;;10503074;28;20224;-69
2022/01/15 08:11:28;;;;;;;30.47;18.50;;;3.80;43.60;;;;;;10503661;28;20224;-67
2022/01/15 08:16:31;;;;;;;25.30;17.73;;;3.90;44.00;;;;;;10503333;28;20235;-68
2022/01/15 08:21:35;;;;;;;28.67;19.33;;;3.90;43.80;;;;;;10500253;28;20249;-69
2022/01/15 08:26:39;;;;;;;29.00;19.63;;;4.00;44.00;;;;;;10504314;28;20225;-72
2022/01/15 08:31:42;;;;;;;29.90;19.30;;;4.00;43.90;;;;;;10507553;28;20229;-69
2022/01/15 08:36:45;;;;;;;26.13;17.40;;;4.10;44.00;;;;;;10504170;28;20774;-69
2022/01/15 08:41:50;;;;;;;35.57;20.43;;;4.20;44.00;;;;;;10521221;22;20224;-76
2022/01/15 08:46:53;;;;;;;34.67;23.37;;;4.40;44.30;;;;;;10483130;28;20711;-75
2022/01/15 08:51:56;;;;;;;32.63;21.43;;;4.30;44.10;;;;;;10469368;28;20232;-75
2022/01/15 08:57:01;;;;;;;31.63;21.57;;;4.30;44.00;;;;;;10439920;28;20221;-75
2022/01/15 09:02:04;;;;;;;35.60;25.33;;;4.40;44.20;;;;;;10432867;28;20224;-74
2022/01/15 09:07:10;;;;;;;33.23;22.27;;;4.40;44.10;;;;;;10440566;28;20241;-73
2022/01/15 09:12:17;;;;;;;29.10;19.53;;;4.50;44.30;;;;;;10442307;28;20223;-74
2022/01/15 09:17:20;;;;;;;27.53;17.93;;;4.50;44.40;;;;;;10435059;28;20220;-74
2022/01/15 09:22:23;;;;;;;26.07;18.30;;;4.60;44.30;;;;;;10436350;28;20287;-73
2022/01/15 09:32:51;;;;;;;29.43;19.53;;;4.60;44.40;;;;;;10433190;28;20234;-73
2022/01/15 09:37:54;;;;;;;26.50;18.00;;;4.60;44.40;;;;;;10432719;28;20231;-73
2022/01/15 09:43:00;;;;;;;22.13;15.03;;;4.70;44.30;;;;;;10434662;28;20213;-73
2022/01/15 09:48:06;;;;;;;17.73;12.47;;;4.70;45.80;;;;;;10432529;28;20322;-73
2022/01/15 09:53:10;;;;;;;8.37;6.60;;;4.80;45.60;;;;;;10431301;28;20792;-73
2022/01/15 09:58:16;;;;;;;7.07;5.87;;;4.90;45.10;;;;;;10433204;28;20233;-73
2022/01/15 10:03:19;;;;;;;9.50;6.97;;;5.00;45.20;;;;;;10430146;28;20595;-73
2022/01/15 10:08:23;;;;;;;7.43;6.23;;;5.00;44.90;;;;;;10436041;28;20232;-73
2022/01/15 10:13:28;;;;;;;9.67;7.17;;;5.00;44.70;;;;;;10432674;28;20229;-74
2022/01/15 10:18:33;;;;;;;8.13;6.20;;;5.10;45.00;;;;;;10431609;28;20229;-74
2022/01/15 10:23:45;;;;;;;7.37;5.47;;;5.10;44.80;;;;;;10430924;28;20225;-74
2022/01/15 10:28:56;;;;;;;8.20;6.87;;;5.10;45.40;;;;;;10429048;28;20232;-75
2022/01/15 10:34:01;;;;;;;10.50;7.77;;;5.10;45.30;;;;;;10433714;28;20217;-75
2022/01/15 10:39:15;;;;;;;11.23;8.03;;;5.20;45.00;;;;;;10439502;28;20224;-75
2022/01/15 10:44:34;;;;;;;10.53;8.30;;;5.10;45.60;;;;;;10437786;28;20240;-75
2022/01/15 10:49:40;;;;;;;10.67;7.63;;;5.20;45.90;;;;;;10438763;28;20224;-76
2022/01/15 10:55:09;;;;;;;10.87;8.80;;;5.20;45.10;;;;;;10433288;28;20225;-76
2022/01/15 11:00:20;;;;;;;12.23;8.20;;;5.30;45.90;;;;;;10434767;28;20221;-76
2022/01/15 11:05:32;;;;;;;10.57;8.07;;;5.30;45.60;;;;;;10440319;28;20826;-76
2022/01/15 11:10:43;;;;;;;12.30;6.83;;;5.30;45.40;;;;;;10438558;28;20222;-73
2022/01/15 11:15:50;;;;;;;8.03;6.93;;;5.40;46.00;;;;;;10437908;28;20229;-74
2022/01/15 11:20:55;;;;;;;8.53;6.33;;;5.60;48.10;;;;;;10427518;28;20372;-74
2022/01/15 11:26:01;;;;;;;9.17;6.70;;;5.80;47.20;;;;;;10449298;28;20224;-74
2022/01/15 11:31:07;;;;;;;8.53;6.40;;;5.90;46.50;;;;;;10438140;28;20225;-74
2022/01/15 11:36:29;;;;;;;8.93;6.67;;;6.10;46.40;;;;;;10442864;28;20723;-74
2022/01/15 11:41:39;;;;;;;9.17;6.77;;;6.10;46.70;;;;;;10434946;28;20762;-74
2022/01/15 11:46:47;;;;;;;9.77;6.83;;;6.20;46.10;;;;;;10433981;28;20258;-74
2022/01/15 11:51:50;;;;;;;10.70;7.30;;;6.20;46.00;;;;;;10449364;28;20231;-74
2022/01/15 11:56:53;;;;;;;9.70;7.73;;;6.30;46.60;;;;;;10447806;28;20228;-74
2022/01/15 12:02:00;;;;;;;7.37;6.27;;;6.40;46.30;;;;;;10436867;28;20233;-74
2022/01/15 12:07:20;;;;;;;10.87;8.83;;;6.50;46.10;;;;;;10432332;28;20221;-74
2022/01/15 12:12:44;;;;;;;10.00;8.33;;;6.50;46.20;;;;;;10437728;28;20326;-74
2022/01/15 12:17:51;;;;;;;9.40;8.40;;;6.50;46.20;;;;;;10442013;28;20251;-74
2022/01/15 12:22:56;;;;;;;10.27;8.30;;;6.50;45.50;;;;;;10430516;28;20723;-77
2022/01/15 12:28:03;;;;;;;10.63;9.50;;;6.50;46.10;;;;;;10435506;28;20235;-75
2022/01/15 12:33:12;;;;;;;11.33;9.07;;;6.50;45.40;;;;;;10438187;28;20717;-76
2022/01/15 12:38:33;;;;;;;9.63;8.63;;;6.50;45.40;;;;;;10431726;28;20994;-74
2022/01/15 12:43:38;;;;;;;10.13;8.87;;;6.50;45.10;;;;;;10438635;28;20221;-75
2022/01/15 12:48:47;;;;;;;11.43;8.73;;;6.50;45.10;;;;;;10436169;28;20307;-76
2022/01/15 12:53:53;;;;;;;9.30;8.23;;;6.50;45.30;;;;;;10429544;28;20229;-76
2022/01/15 12:58:57;;;;;;;16.33;11.10;;;6.40;45.00;;;;;;10424951;28;20233;-77
2022/01/15 13:04:11;;;;;;;12.17;9.57;;;6.40;44.90;;;;;;10428582;28;20229;-76
2022/01/15 13:09:14;;;;;;;10.70;8.37;;;6.50;45.50;;;;;;10430620;28;20688;-76
2022/01/15 13:14:20;;;;;;;12.47;10.80;;;6.40;44.80;;;;;;10428018;28;20727;-75
2022/01/15 13:19:25;;;;;;;12.33;10.20;;;6.40;44.70;;;;;;10433673;28;20224;-76
2022/01/15 13:24:28;;;;;;;9.90;8.63;;;6.40;44.90;;;;;;10420655;28;20241;-76
2022/01/15 13:29:42;;;;;;;9.03;7.93;;;6.40;44.90;;;;;;10431410;28;20247;-77
2022/01/15 13:34:48;;;;;;;8.90;8.07;;;6.40;45.30;;;;;;10426452;28;20229;-78
2022/01/15 13:39:52;;;;;;;8.87;7.97;;;6.40;44.90;;;;;;10430970;28;20279;-78
2022/01/15 13:44:55;;;;;;;11.17;9.33;;;6.40;44.60;;;;;;10435568;28;20259;-77
2022/01/15 13:55:35;;;;;;;12.37;10.27;;;6.40;44.60;;;;;;10426470;22;20382;-70
2022/01/15 14:00:39;;;;;;;14.30;11.17;;;6.40;44.80;;;;;;10495785;28;20227;-70
2022/01/15 14:10:53;;;;;;;13.80;11.57;;;6.40;44.50;;;;;;10400032;28;20222;-67
2022/01/15 14:15:56;;;;;;;19.17;16.07;;;6.40;44.70;;;;;;10405756;28;20225;-67
2022/01/15 14:21:17;;;;;;;15.50;12.67;;;6.40;44.40;;;;;;10424837;28;20225;-67
2022/01/15 14:26:24;;;;;;;15.93;12.63;;;6.30;44.20;;;;;;10420239;28;20229;-67
2022/01/15 14:31:28;;;;;;;15.13;12.07;;;6.20;44.30;;;;;;10431958;28;20279;-66
2022/01/15 14:36:32;;;;;;;13.63;10.77;;;6.20;44.40;;;;;;10435230;28;20232;-70
2022/01/15 14:41:37;;;;;;;12.27;10.60;;;6.20;44.60;;;;;;10428416;28;20236;-69
2022/01/15 14:46:42;;;;;;;14.50;12.27;;;6.20;45.70;;;;;;10429839;28;20225;-67
2022/01/15 14:51:45;;;;;;;12.37;10.33;;;6.30;45.60;;;;;;10425611;28;20217;-67
2022/01/15 14:56:50;;;;;;;16.50;13.17;;;6.40;45.70;;;;;;10428657;28;20228;-67
2022/01/15 15:01:53;;;;;;;15.13;12.23;;;6.50;46.90;;;;;;10432936;28;20639;-67
2022/01/15 15:06:56;;;;;;;13.43;10.90;;;6.60;45.90;;;;;;10419327;28;20249;-67
2022/01/15 15:12:03;;;;;;;13.20;10.73;;;6.70;45.10;;;;;;10433276;28;20223;-67
2022/01/15 15:17:06;;;;;;;12.63;10.43;;;6.70;44.10;;;;;;10473578;28;20232;-67
2022/01/15 15:22:09;;;;;;;11.97;9.00;;;6.60;44.00;;;;;;10466118;28;20221;-67
2022/01/15 15:27:14;;;;;;;13.10;10.37;;;6.50;44.10;;;;;;10461074;28;20263;-67
2022/01/15 15:32:18;;;;;;;30.50;18.73;;;6.50;44.10;;;;;;10465044;28;20259;-67
2022/01/15 15:37:21;;;;;;;19.37;13.43;;;6.40;43.90;;;;;;10465494;28;20224;-67
2022/01/15 15:42:25;;;;;;;16.33;11.73;;;6.30;44.00;;;;;;10460791;28;20235;-67
2022/01/15 15:47:29;;;;;;;16.30;11.60;;;6.30;44.10;;;;;;10465598;28;20726;-67
2022/01/15 15:52:32;;;;;;;14.80;11.47;;;6.20;44.00;;;;;;10463048;28;20225;-67
2022/01/15 15:57:39;;;;;;;15.43;12.13;;;6.20;43.70;;;;;;10457554;28;20225;-67
2022/01/15 16:02:44;;;;;;;13.47;10.93;;;6.10;44.10;;;;;;10459425;28;20225;-66
2022/01/15 16:07:48;;;;;;;13.53;11.17;;;6.00;44.00;;;;;;10457048;28;20619;-69
2022/01/15 16:12:54;;;;;;;15.30;12.20;;;6.10;45.20;;;;;;10455190;28;20421;-67
2022/01/15 16:17:57;;;;;;;16.33;12.90;;;6.00;44.70;;;;;;10465537;28;20231;-66
2022/01/15 16:23:01;;;;;;;18.70;13.37;;;6.10;44.60;;;;;;10455892;28;20692;-67
2022/01/15 16:28:06;;;;;;;18.23;15.17;;;6.10;44.60;;;;;;10463877;28;20668;-69
2022/01/15 16:33:29;;;;;;;20.80;16.53;;;6.00;44.30;;;;;;10463274;28;20224;-70
2022/01/15 16:38:33;;;;;;;20.73;17.77;;;6.00;44.10;;;;;;10462774;28;20225;-69
2022/01/15 16:43:38;;;;;;;23.63;17.27;;;5.90;44.10;;;;;;10460717;28;20232;-69
2022/01/15 16:48:41;;;;;;;22.07;17.80;;;5.80;44.20;;;;;;10463045;28;20232;-68
2022/01/15 16:53:44;;;;;;;22.67;14.63;;;5.70;44.20;;;;;;10459465;28;20221;-68
2022/01/15 16:58:49;;;;;;;20.87;15.97;;;5.80;45.50;;;;;;10454726;28;20232;-68
2022/01/15 17:03:52;;;;;;;20.00;16.13;;;5.80;45.90;;;;;;10456309;28;20719;-68
2022/01/15 17:08:55;;;;;;;22.70;17.13;;;5.90;45.30;;;;;;10459021;28;20224;-68
2022/01/15 17:14:02;;;;;;;19.87;15.83;;;6.00;44.80;;;;;;10457266;28;20221;-68
2022/01/15 17:19:06;;;;;;;22.07;18.10;;;6.00;44.50;;;;;;10457663;28;20237;-68
2022/01/15 17:24:09;;;;;;;19.83;15.60;;;5.90;44.40;;;;;;10456937;28;20312;-69
2022/01/15 17:29:14;;;;;;;23.07;17.57;;;5.90;44.40;;;;;;10455195;28;20728;-69
2022/01/15 17:34:17;;;;;;;24.00;18.47;;;5.90;44.50;;;;;;10459358;28;20731;-69
2022/01/15 17:39:20;;;;;;;26.73;21.07;;;5.80;44.30;;;;;;10456277;28;20228;-68
2022/01/15 17:44:25;;;;;;;22.27;17.97;;;5.80;44.50;;;;;;10454281;28;20235;-69
2022/01/15 17:49:28;;;;;;;21.87;18.10;;;5.80;44.70;;;;;;10458502;28;20231;-69
2022/01/15 17:54:32;;;;;;;21.67;16.60;;;5.80;44.50;;;;;;10454569;28;20672;-68
2022/01/15 17:59:36;;;;;;;20.43;15.93;;;5.80;44.50;;;;;;10460246;28;20236;-68
2022/01/15 18:04:39;;;;;;;21.53;15.57;;;5.80;44.60;;;;;;10461657;28;20247;-70
2022/01/15 18:09:42;;;;;;;20.97;15.97;;;5.90;44.50;;;;;;10457897;28;20225;-69
2022/01/15 18:14:50;;;;;;;21.43;16.77;;;5.90;44.50;;;;;;10456803;28;20221;-69
2022/01/15 18:19:53;;;;;;;24.30;18.17;;;5.90;44.60;;;;;;10462699;28;20276;-68
2022/01/15 18:24:56;;;;;;;23.37;17.07;;;5.90;44.30;;;;;;10456272;28;20217;-68
2022/01/15 18:30:03;;;;;;;22.77;17.17;;;5.90;44.30;;;;;;10460020;28;20236;-69
2022/01/15 18:35:19;;;;;;;25.80;17.30;;;5.80;44.50;;;;;;10456343;28;20592;-69
2022/01/15 18:40:22;;;;;;;24.93;17.40;;;5.80;44.40;;;;;;10455831;28;20236;-69
2022/01/15 18:45:27;;;;;;;27.20;18.90;;;5.80;44.40;;;;;;10457182;28;20602;-67
2022/01/15 18:50:32;;;;;;;27.77;19.10;;;5.80;44.50;;;;;;10457268;28;20227;-67
2022/01/15 18:55:35;;;;;;;29.73;20.57;;;5.80;44.30;;;;;;10456213;28;20220;-67
2022/01/15 19:00:41;;;;;;;30.00;19.77;;;5.70;44.00;;;;;;10461342;28;20596;-67
2022/01/15 19:05:45;;;;;;;36.60;19.00;;;5.60;44.30;;;;;;10466476;28;20799;-68
2022/01/15 19:10:48;;;;;;;42.80;29.10;;;5.50;44.20;;;;;;10464578;28;20224;-67
2022/01/15 19:15:52;;;;;;;24.20;17.87;;;5.50;44.30;;;;;;10460742;28;20216;-67
2022/01/15 19:20:56;;;;;;;27.80;17.70;;;5.40;44.50;;;;;;10466408;28;20228;-67
2022/01/15 19:25:59;;;;;;;25.00;16.93;;;5.40;44.50;;;;;;10460178;28;20225;-67
2022/01/15 19:31:04;;;;;;;25.23;16.20;;;5.40;44.50;;;;;;10470059;28;20221;-67
2022/01/15 19:36:07;;;;;;;23.07;15.90;;;5.30;44.40;;;;;;10460965;28;20319;-67
2022/01/15 19:41:10;;;;;;;21.50;16.00;;;5.30;44.40;;;;;;10461525;28;20343;-67
2022/01/15 19:46:16;;;;;;;24.03;19.33;;;5.20;44.40;;;;;;10466157;28;20224;-67
2022/01/15 19:51:20;;;;;;;21.37;13.73;;;5.20;44.60;;;;;;10461777;28;20232;-67
2022/01/15 19:56:23;;;;;;;17.87;13.63;;;5.20;44.40;;;;;;10462355;28;20229;-67
2022/01/15 20:01:28;;;;;;;18.50;14.53;;;5.10;44.30;;;;;;10464232;28;20224;-67
2022/01/15 20:06:31;;;;;;;15.40;12.50;;;5.00;44.50;;;;;;10535083;22;20252;-71
2022/01/15 20:11:35;;;;;;;19.27;14.60;;;5.00;44.60;;;;;;10436412;28;20712;-71
2022/01/15 20:16:54;;;;;;;19.20;15.83;;;5.00;44.50;;;;;;10437586;28;20252;-71
2022/01/15 20:21:57;;;;;;;19.47;15.20;;;5.10;44.70;;;;;;10426969;28;20225;-71
2022/01/15 20:27:00;;;;;;;18.13;14.50;;;5.00;44.20;;;;;;10431732;28;20225;-71
2022/01/15 20:32:06;;;;;;;23.00;20.27;;;4.90;44.20;;;;;;10429800;28;20322;-71
2022/01/15 20:37:09;;;;;;;15.63;13.03;;;4.80;44.30;;;;;;10430530;28;20237;-71
2022/01/15 20:42:12;;;;;;;16.17;12.23;;;4.80;44.40;;;;;;10429383;28;20221;-72
2022/01/15 20:47:17;;;;;;;17.40;12.87;;;4.70;44.60;;;;;;10417805;28;20226;-72
2022/01/15 20:52:20;;;;;;;16.40;12.33;;;4.70;44.70;;;;;;10417610;28;20225;-72
2022/01/15 20:57:24;;;;;;;16.90;12.50;;;4.70;44.80;;;;;;10420710;28;20449;-72
2022/01/15 21:02:31;;;;;;;16.63;12.83;;;4.80;44.80;;;;;;10424155;28;20282;-72
2022/01/15 21:07:35;;;;;;;16.63;12.43;;;4.80;44.70;;;;;;10419017;28;20240;-72
2022/01/15 21:12:39;;;;;;;17.40;12.90;;;4.80;44.50;;;;;;10420085;28;20500;-72
2022/01/15 21:17:44;;;;;;;17.97;13.10;;;4.80;44.60;;;;;;10420534;28;20416;-72
2022/01/15 21:22:47;;;;;;;16.50;13.30;;;4.70;44.70;;;;;;10421762;28;20236;-72
2022/01/15 21:27:53;;;;;;;16.93;13.47;;;4.70;44.70;;;;;;10422228;28;20239;-72
2022/01/15 21:32:58;;;;;;;16.00;12.90;;;4.80;44.80;;;;;;10416782;28;20303;-72
2022/01/15 21:38:01;;;;;;;17.13;13.23;;;4.80;44.90;;;;;;10418644;28;20225;-72
2022/01/15 21:43:04;;;;;;;15.10;11.97;;;4.80;44.60;;;;;;10421034;28;20240;-72
2022/01/15 21:48:09;;;;;;;12.60;10.97;;;4.80;44.40;;;;;;10418766;28;20240;-72
2022/01/15 21:53:13;;;;;;;12.57;10.77;;;4.80;44.30;;;;;;10423263;28;20233;-72
2022/01/15 21:58:21;;;;;;;11.97;10.60;;;4.60;44.10;;;;;;10421097;28;20228;-72
2022/01/15 22:03:25;;;;;;;12.33;10.40;;;4.50;44.40;;;;;;10423905;28;20232;-72
2022/01/15 22:08:28;;;;;;;14.37;10.70;;;4.40;44.70;;;;;;10419043;28;20233;-72
2022/01/15 22:13:32;;;;;;;13.53;10.97;;;4.40;44.70;;;;;;10419075;28;20224;-72
2022/01/15 22:18:37;;;;;;;14.10;11.80;;;4.40;44.70;;;;;;10421297;28;20665;-72
2022/01/15 22:23:40;;;;;;;13.90;11.67;;;4.40;45.00;;;;;;10416456;28;20231;-72
2022/01/15 22:29:00;;;;;;;13.90;11.13;;;4.50;45.00;;;;;;10410875;28;20303;-72
2022/01/15 22:34:05;;;;;;;15.67;12.43;;;4.50;44.70;;;;;;10427868;28;20233;-72
2022/01/15 22:39:08;;;;;;;14.03;12.33;;;4.60;44.70;;;;;;10428058;28;20231;-71
2022/01/15 22:44:12;;;;;;;13.53;11.53;;;4.60;44.70;;;;;;10428668;28;20504;-71
2022/01/15 22:49:17;;;;;;;15.53;12.10;;;4.60;44.70;;;;;;10430202;28;20229;-71
2022/01/15 22:54:20;;;;;;;13.57;11.37;;;4.60;44.70;;;;;;10423517;28;20225;-71
2022/01/15 22:59:24;;;;;;;13.77;11.27;;;4.60;44.60;;;;;;10428105;28;20237;-71
2022/01/15 23:04:29;;;;;;;15.43;11.73;;;4.60;44.40;;;;;;10426860;28;20239;-71
2022/01/15 23:09:32;;;;;;;13.20;11.43;;;4.60;44.70;;;;;;10428269;28;20308;-71
2022/01/15 23:14:36;;;;;;;11.77;10.40;;;4.70;44.60;;;;;;10429673;28;20712;-71
2022/01/15 23:19:40;;;;;;;12.57;10.50;;;4.60;44.30;;;;;;10434246;28;20225;-71
2022/01/15 23:24:43;;;;;;;11.77;10.00;;;4.50;44.30;;;;;;10433104;28;20225;-71
2022/01/15 23:29:47;;;;;;;12.43;10.30;;;4.50;44.60;;;;;;10430811;28;20688;-71
2022/01/15 23:34:52;;;;;;;11.97;10.33;;;4.50;44.70;;;;;;10428816;28;20338;-69
2022/01/15 23:39:55;;;;;;;13.77;11.07;;;4.50;44.80;;;;;;10427471;28;20225;-69
2022/01/15 23:45:01;;;;;;;14.40;11.73;;;4.60;44.60;;;;;;10431101;28;20260;-71
2022/01/15 23:50:06;;;;;;;14.43;11.07;;;4.40;44.30;;;;;;10427885;28;20231;-71
2022/01/15 23:55:11;;;;;;;14.80;11.83;;;4.40;44.50;;;;;;10429905;28;20224;-69
